Time;durP1;ratioP1;P1;durP2;ratioP2;P2;SDS_P1;SDS_P2;PMS_P1;PMS_P2;Temp;Humidity;BMP_temperature;BMP_pressure;BME280_temperature;BME280_humidity;BME280_pressure;Samples;Min_cycle;Max_cycle;Signal;HPM_P1;HPM_P2
2023/02/14 00:01:43;;;;;;;;;;;;;;;0.00;75.41;102453.31;4971029;28;19914;-79
2023/02/14 00:04:09;;;;;;;67.53;29.37;;;;;;;-0.28;75.92;102434.78;4946084;28;19914;-79
2023/02/14 00:06:37;;;;;;;64.18;27.73;;;;;;;-0.18;76.13;102453.88;4920472;28;20043;-79
2023/02/14 00:09:04;;;;;;;73.68;30.70;;;;;;;-0.22;76.05;102440.75;4937503;28;20243;-79
2023/02/14 00:11:30;;;;;;;;;;;;;;;-0.25;75.99;102446.13;4972099;28;20034;-77
2023/02/14 00:16:39;;;;;;;70.80;30.77;;;;;;;-0.45;76.85;102438.81;4971637;28;20050;-80
2023/02/14 00:19:06;;;;;;;60.00;27.80;;;;;;;-0.50;76.48;102405.50;4952890;28;20038;-80
2023/02/14 00:21:37;;;;;;;70.03;31.70;;;;;;;-0.49;77.25;102436.31;4971130;28;20034;-80
2023/02/14 00:24:23;;;;;;;78.43;33.58;;;;;;;-0.49;77.49;102436.31;4930699;28;20113;-80
2023/02/14 00:26:49;;;;;;;77.40;31.98;;;;;;;-0.57;77.36;102406.63;4934178;28;20108;-79
2023/02/14 00:29:16;;;;;;;78.75;34.47;;;;;;;-0.49;77.38;102433.69;4948057;28;20201;-78
2023/02/14 00:31:42;;;;;;;75.63;33.78;;;;;;;-0.61;77.08;102400.53;4972515;28;20038;-79
2023/02/14 00:34:08;;;;;;;84.30;34.17;;;;;;;-0.45;77.11;102412.38;4970405;28;20035;-83
2023/02/14 00:36:33;;;;;;;84.97;34.22;;;;;;;-0.71;77.54;102392.03;4954058;28;20042;-80
2023/02/14 00:39:04;;;;;;;79.55;34.80;;;;;;;-0.57;77.78;102418.03;4953643;28;20035;-80
2023/02/14 00:41:29;;;;;;;76.95;32.25;;;;;;;-0.61;78.03;102410.25;4939000;28;20109;-77
2023/02/14 00:43:55;;;;;;;78.15;33.67;;;;;;;-0.60;78.34;102404.06;4953771;28;20054;-79
2023/02/14 00:46:21;;;;;;;86.43;33.27;;;;;;;-0.55;78.20;102404.78;4966908;28;20518;-79
2023/02/14 00:48:46;;;;;;;72.80;31.63;;;;;;;-0.61;78.36;102387.34;4942094;28;20447;-77
2023/02/14 00:51:12;;;;;;;71.47;34.07;;;;;;;-0.65;78.38;102389.22;4941604;28;20035;-78
2023/02/14 00:53:38;;;;;;;75.88;33.03;;;;;;;-0.62;78.45;102363.63;4953639;28;20138;-80
2023/02/14 00:56:03;;;;;;;79.67;36.30;;;;;;;-0.61;78.93;102373.25;4957131;28;20038;-79
2023/02/14 00:58:30;;;;;;;74.25;34.70;;;;;;;-0.65;78.95;102377.78;4974979;28;20343;-77
2023/02/14 01:00:56;;;;;;;85.15;35.78;;;;;;;-0.63;79.16;102370.69;4954332;28;20035;-80
2023/02/14 01:03:23;;;;;;;85.72;37.53;;;;;;;-0.59;79.19;102374.09;4953999;28;20045;-79
2023/02/14 01:05:48;;;;;;;87.35;37.85;;;;;;;-0.80;79.32;102342.13;4953092;28;20129;-79
2023/02/14 01:08:14;;;;;;;79.93;35.83;;;;;;;-0.65;79.18;102354.03;4953770;28;20360;-80
2023/02/14 01:10:39;;;;;;;88.07;37.97;;;;;;;-0.65;79.06;102346.94;4954301;28;20054;-78
2023/02/14 01:13:05;;;;;;;81.38;35.60;;;;;;;-0.61;79.60;102352.13;4938030;28;20038;-78
2023/02/14 01:15:31;;;;;;;86.87;34.97;;;;;;;-0.61;79.92;102347.69;4916766;28;20039;-79
2023/02/14 01:18:00;;;;;;;85.47;35.22;;;;;;;-0.62;79.40;102331.94;4952374;28;21113;-79
2023/02/14 01:20:25;;;;;;;81.72;35.05;;;;;;;-0.51;79.61;102333.31;4960585;28;20101;-83
2023/02/14 01:22:52;;;;;;;86.47;34.88;;;;;;;-0.49;79.54;102328.00;4971672;28;20486;-77
2023/02/14 01:25:19;;;;;;;80.15;34.67;;;;;;;-0.46;79.57;102336.66;4971013;28;20030;-80
2023/02/14 01:27:44;;;;;;;71.07;33.40;;;;;;;-0.39;79.23;102329.41;4947252;28;20064;-79
2023/02/14 01:30:10;;;;;;;79.17;33.60;;;;;;;-0.45;79.01;102305.81;4952962;28;20034;-79
2023/02/14 01:32:36;;;;;;;80.22;34.28;;;;;;;-0.35;78.97;102323.13;4969271;28;20039;-79
2023/02/14 01:35:02;;;;;;;80.13;34.50;;;;;;;-0.28;79.02;102331.69;4952399;28;20125;-80
2023/02/14 01:37:29;;;;;;;80.60;36.10;;;;;;;-0.38;78.50;102301.19;4953706;28;20465;-78
2023/02/14 01:39:54;;;;;;;75.22;34.75;;;;;;;-0.19;78.58;102322.59;4953036;28;20049;-78
2023/02/14 01:42:21;;;;;;;77.00;35.40;;;;;;;-0.24;78.38;102320.09;4970811;28;20065;-81
2023/02/14 01:44:46;;;;;;;78.75;35.72;;;;;;;-0.22;78.44;102320.91;4948700;28;20043;-80
2023/02/14 01:47:12;;;;;;;79.43;36.43;;;;;;;-0.30;78.21;102296.53;4965333;28;20035;-80
2023/02/14 01:49:59;;;;;;;79.20;34.10;;;;;;;-0.25;78.15;102310.47;4933065;28;20050;-79
2023/02/14 01:52:30;;;;;;;80.10;36.08;;;;;;;-0.23;78.49;102314.78;4943717;28;20049;-78
2023/02/14 01:55:01;;;;;;;75.97;35.65;;;;;;;-0.20;78.56;102327.03;4968162;28;20514;-80
2023/02/14 01:57:35;;;;;;;82.55;36.17;;;;;;;-0.20;78.47;102321.75;4947250;28;20122;-81
2023/02/14 02:02:48;;;;;;;73.47;34.28;;;;;;;-0.15;78.30;102313.66;4943072;28;20118;-79
2023/02/14 02:05:14;;;;;;;86.60;34.17;;;;;;;-0.15;78.24;102305.72;4968568;28;20031;-79
2023/02/14 02:07:39;;;;;;;76.68;36.10;;;;;;;-0.17;77.89;102294.34;4963602;28;20295;-81
2023/02/14 02:10:06;;;;;;;78.37;35.60;;;;;;;-0.12;77.62;102276.53;4957773;28;20475;-79
2023/02/14 02:12:37;;;;;;;78.30;35.28;;;;;;;0.06;77.35;102289.13;4955251;28;20072;-80
2023/02/14 02:15:03;;;;;;;79.68;36.25;;;;;;;0.01;77.37;102282.28;4935988;28;20047;-79
2023/02/14 02:17:37;;;;;;;83.05;38.80;;;;;;;-0.05;77.49;102272.75;4972009;28;20050;-78
2023/02/14 02:20:08;;;;;;;82.47;36.90;;;;;;;-0.09;77.64;102274.66;4989803;28;20058;-81
2023/02/14 02:22:46;;;;;;;81.78;38.58;;;;;;;-0.10;77.70;102278.19;4971293;28;20061;-79
2023/02/14 02:25:50;;;;;;;83.25;38.60;;;;;;;-0.15;77.96;102281.94;4988609;28;20101;-77
2023/02/14 02:28:29;;;;;;;84.88;36.45;;;;;;;-0.16;78.26;102269.66;4987815;28;20057;-79
2023/02/14 02:31:20;;;;;;;81.85;35.85;;;;;;;-0.08;77.65;102262.28;4969372;28;20475;-79
2023/02/14 02:33:55;;;;;;;79.30;35.20;;;;;;;-0.12;77.48;102255.38;4976893;28;20046;-79
2023/02/14 02:36:41;;;;;;;79.00;35.15;;;;;;;-0.24;77.85;102259.31;4974718;28;20150;-80
2023/02/14 02:39:44;;;;;;;76.13;34.85;;;;;;;-0.18;77.65;102253.81;4984917;28;20034;-79
2023/02/14 02:42:13;;;;;;;76.03;35.47;;;;;;;-0.33;78.40;102247.28;4987089;28;20046;-80
2023/02/14 02:45:02;;;;;;;82.07;37.22;;;;;;;-0.33;78.40;102252.56;4968950;28;20486;-80
2023/02/14 02:47:48;;;;;;;84.43;37.67;;;;;;;-0.43;78.79;102246.72;4976978;28;20459;-79
2023/02/14 02:53:40;;;;;;;91.53;38.55;;;;;;;-0.53;79.60;102249.72;4961364;28;20137;-80
2023/02/14 02:59:28;;;;;;;85.88;38.42;;;;;;;-0.59;80.02;102255.19;4981146;28;20446;-82
2023/02/14 03:02:08;;;;;;;78.90;36.90;;;;;;;-0.63;80.16;102257.09;4966172;28;20042;-80
2023/02/14 03:04:53;;;;;;;79.43;36.97;;;;;;;-0.64;80.46;102244.78;4971029;28;20043;-79
2023/02/14 03:07:35;;;;;;;85.03;37.30;;;;;;;-0.56;79.91;102239.25;4958805;28;20043;-78
2023/02/14 03:10:21;;;;;;;85.47;37.10;;;;;;;-0.55;79.91;102236.56;4969027;28;20502;-79
2023/02/14 03:12:56;;;;;;;;;;;;;;;-0.56;80.11;102228.66;4988922;28;20375;-80
2023/02/14 03:15:35;;;;;;;84.60;35.75;;;;;;;-0.65;79.89;102220.16;4995011;28;19913;-79
2023/02/14 03:18:12;;;;;;;80.40;35.08;;;;;;;-0.76;80.32;102210.84;4981768;28;20039;-80
2023/02/14 03:20:54;;;;;;;83.93;36.58;;;;;;;-0.72;80.51;102229.19;4993352;28;20553;-80
2023/02/14 03:23:21;;;;;;;84.07;34.00;;;;;;;-0.67;80.65;102221.13;4973687;28;20491;-80
2023/02/14 03:26:05;;;;;;;82.15;36.67;;;;;;;-0.66;80.35;102218.44;4990936;28;20329;-79
2023/02/14 03:28:45;;;;;;;81.68;36.95;;;;;;;-0.66;80.23;102218.44;4993396;28;20042;-80
2023/02/14 03:31:13;;;;;;;84.65;36.70;;;;;;;-0.64;80.21;102213.94;4992902;28;20508;-81
2023/02/14 03:34:02;;;;;;;80.22;35.78;;;;;;;-0.57;79.81;102211.09;4989011;28;20088;-80
2023/02/14 03:36:35;;;;;;;79.63;36.58;;;;;;;-0.70;80.24;102206.25;4986809;28;20049;-77
2023/02/14 03:39:06;;;;;;;84.22;36.75;;;;;;;-0.71;80.20;102199.22;4955226;28;20516;-80
2023/02/14 03:41:37;;;;;;;81.47;35.75;;;;;;;-0.82;80.75;102182.88;4991595;28;21770;-80
2023/02/14 03:44:04;;;;;;;75.85;34.80;;;;;;;-0.82;80.83;102182.88;4957664;28;20042;-80
2023/02/14 03:46:34;;;;;;;89.95;38.75;;;;;;;-0.90;81.27;102166.41;4955032;28;20049;-79
2023/02/14 03:49:04;;;;;;;74.30;33.92;;;;;;;-0.89;81.04;102157.56;4989883;28;20053;-79
2023/02/14 03:51:33;;;;;;;82.43;35.85;;;;;;;-0.81;81.27;102174.03;4971135;28;20038;-78
2023/02/14 03:53:59;;;;;;;83.05;35.38;;;;;;;-0.88;81.19;102161.94;4977602;28;20395;-81
2023/02/14 03:56:37;;;;;;;86.05;36.47;;;;;;;-0.98;81.86;102176.38;4989948;28;20117;-82
2023/02/14 03:59:28;;;;;;;80.45;34.45;;;;;;;-1.00;82.01;102173.78;4980424;28;20093;-81
2023/02/14 04:01:58;;;;;;;81.20;34.45;;;;;;;-1.01;82.17;102171.16;4949150;28;20043;-80
2023/02/14 04:04:26;;;;;;;84.20;35.63;;;;;;;-1.13;82.52;102160.09;4923007;28;20054;-79
2023/02/14 04:06:52;;;;;;;80.65;35.28;;;;;;;-1.14;82.71;102155.72;4954578;28;20101;-80
2023/02/14 04:09:17;;;;;;;87.27;37.03;;;;;;;-1.15;82.74;102159.31;4943899;28;20055;-83
2023/02/14 04:11:45;;;;;;;81.90;37.17;;;;;;;-1.18;82.72;102162.00;4932865;28;20368;-79
2023/02/14 04:14:12;;;;;;;84.78;36.47;;;;;;;-1.13;82.55;102157.44;4952662;28;20046;-78
2023/02/14 04:19:23;;;;;;;;;;;;;;;-1.02;82.08;102183.50;4971528;28;20169;-82
2023/02/14 04:21:52;;;;;;;;;;;;;;;-1.04;82.04;102187.97;4953953;28;20037;-77
2023/02/14 04:24:18;;;;;;;62.40;26.90;;;;;;;-1.11;82.19;102179.38;4969499;28;19936;-79
2023/02/14 04:26:52;;;;;;;71.97;30.38;;;;;;;-1.10;82.04;102191.69;4953206;28;20384;-79
2023/02/14 04:29:19;;;;;;;71.47;32.05;;;;;;;-0.99;81.52;102193.09;4971424;28;20137;-78
2023/02/14 04:31:44;;;;;;;67.22;31.20;;;;;;;-1.00;81.14;102194.03;4952689;28;20081;-79
2023/02/14 04:34:10;;;;;;;71.40;30.63;;;;;;;-1.03;81.67;102195.00;4952426;28;20477;-81
2023/02/14 04:36:35;;;;;;;65.17;28.97;;;;;;;-1.17;81.44;102178.72;4951392;28;20101;-78
2023/02/14 04:39:01;;;;;;;65.13;29.57;;;;;;;-1.10;81.43;102189.06;4954183;28;20074;-82
2023/02/14 04:41:26;;;;;;;66.80;29.27;;;;;;;-0.96;81.42;102193.88;4938086;28;20039;-79
2023/02/14 04:43:52;;;;;;;67.20;29.52;;;;;;;-1.01;81.11;102184.38;4970487;28;20054;-78
2023/02/14 04:46:18;;;;;;;64.00;29.13;;;;;;;-1.01;81.00;102181.72;4953907;28;20102;-77
2023/02/14 04:48:44;;;;;;;58.65;27.35;;;;;;;-0.93;80.78;102185.00;4953462;28;20038;-79
2023/02/14 04:51:09;;;;;;;67.27;28.57;;;;;;;-0.85;80.72;102194.38;4951087;28;20511;-80
2023/02/14 04:53:38;;;;;;;59.87;28.00;;;;;;;-0.78;80.57;102204.75;4970840;28;20042;-83
2023/02/14 04:56:05;;;;;;;60.17;28.33;;;;;;;-0.85;80.37;102196.16;4948282;28;20044;-81
2023/02/14 04:58:31;;;;;;;58.83;27.27;;;;;;;-0.86;80.37;102194.44;4957705;28;20046;-85
2023/02/14 05:00:57;;;;;;;63.30;28.88;;;;;;;-0.85;80.24;102201.44;4973086;28;20061;-83
2023/02/14 05:03:24;;;;;;;57.85;27.02;;;;;;;-1.03;80.23;102165.06;4972924;28;20050;-82
2023/02/14 05:05:51;;;;;;;64.47;28.77;;;;;;;-1.02;80.29;102165.03;4941873;28;20053;-83
2023/02/14 05:08:19;;;;;;;63.38;27.30;;;;;;;-0.93;80.21;102171.81;4972699;28;20046;-81
2023/02/14 05:10:45;;;;;;;61.33;28.45;;;;;;;-0.86;79.94;102178.59;4965374;28;20141;-81
2023/02/14 05:13:11;;;;;;;65.82;29.58;;;;;;;-0.93;80.26;102172.66;4929572;28;20101;-83
2023/02/14 05:15:37;;;;;;;73.17;30.43;;;;;;;-0.86;80.22;102183.88;4973890;28;20124;-80
2023/02/14 05:18:04;;;;;;;69.07;29.88;;;;;;;-0.89;80.28;102179.56;4974446;28;20272;-80
2023/02/14 05:20:32;;;;;;;66.55;29.60;;;;;;;-0.82;79.72;102187.28;4973862;28;20022;-80
2023/02/14 05:23:02;;;;;;;68.25;28.60;;;;;;;-0.80;79.72;102196.00;4990236;28;20045;-81
2023/02/14 05:25:30;;;;;;;62.90;28.35;;;;;;;-0.83;79.67;102196.97;4988373;28;20038;-80
2023/02/14 05:27:55;;;;;;;62.08;28.25;;;;;;;-0.77;79.87;102210.00;4972004;28;20038;-81
2023/02/14 05:30:25;;;;;;;66.63;28.33;;;;;;;-0.69;79.64;102213.25;4973235;28;20046;-81
2023/02/14 05:32:51;;;;;;;56.38;26.88;;;;;;;-0.60;79.24;102217.38;4973270;28;20069;-80
2023/02/14 05:35:18;;;;;;;59.38;27.23;;;;;;;-0.54;78.67;102216.28;4965864;28;20118;-80
2023/02/14 05:37:43;;;;;;;56.40;26.88;;;;;;;-0.42;78.11;102202.69;4975185;28;20156;-80
2023/02/14 05:40:12;;;;;;;58.65;27.17;;;;;;;-0.39;77.82;102207.84;4960013;28;20055;-83
2023/02/14 05:42:37;;;;;;;61.58;28.25;;;;;;;-0.37;77.98;102219.22;4965533;28;20089;-83
2023/02/14 05:45:04;;;;;;;61.55;27.48;;;;;;;-0.27;77.71;102218.00;4982843;28;20033;-83
2023/02/14 05:47:31;;;;;;;59.70;27.58;;;;;;;-0.20;77.06;102215.16;4954589;28;20038;-80
2023/02/14 05:49:56;;;;;;;55.67;27.10;;;;;;;-0.19;76.82;102201.84;4977375;28;20042;-81
2023/02/14 05:52:24;;;;;;;65.13;28.90;;;;;;;-0.17;76.45;102205.31;4972609;28;20065;-82
2023/02/14 05:54:50;;;;;;;58.78;28.35;;;;;;;-0.17;76.73;102193.88;4971222;28;20026;-84
2023/02/14 05:57:19;;;;;;;58.42;27.27;;;;;;;0.07;76.14;102216.81;4956997;28;20034;-84
2023/02/14 05:59:45;;;;;;;54.85;25.70;;;;;;;0.45;75.23;102193.38;4969068;28;20553;-82
2023/02/14 06:02:13;;;;;;;55.03;27.23;;;;;;;2.10;69.92;102179.47;4971172;28;20088;-84
2023/02/14 06:04:38;;;;;;;46.97;24.42;;;;;;;3.93;64.62;102192.69;4961089;28;20121;-84
2023/02/14 06:07:05;;;;;;;53.45;24.15;;;;;;;5.36;59.07;102181.22;4988416;28;20053;-80
2023/02/14 06:09:31;;;;;;;49.28;26.25;;;;;;;6.21;55.13;102185.06;4977060;28;20034;-84
2023/02/14 06:12:00;;;;;;;59.53;26.37;;;;;;;6.98;52.83;102181.03;4956808;28;20035;-92
2023/02/14 06:14:26;;;;;;;50.30;26.58;;;;;;;8.05;49.07;102175.53;4994001;28;20432;-87
2023/02/14 06:16:52;;;;;;;49.33;27.95;;;;;;;8.95;46.92;102162.00;4963119;28;20050;-81
2023/02/14 06:19:22;;;;;;;52.75;27.88;;;;;;;9.29;44.65;102168.38;4990782;28;20089;-86
2023/02/14 06:21:49;;;;;;;52.78;28.38;;;;;;;10.37;43.20;102149.28;4951650;28;20046;-84
2023/02/14 06:24:16;;;;;;;55.20;29.33;;;;;;;9.61;42.81;102157.88;4971204;28;20077;-88
2023/02/14 06:26:43;;;;;;;48.83;29.02;;;;;;;9.02;43.43;102166.78;4971848;28;20054;-90
2023/02/14 06:29:09;;;;;;;56.03;30.00;;;;;;;8.86;44.24;102176.94;4981494;28;20054;-85
2023/02/14 06:31:38;;;;;;;50.75;28.83;;;;;;;8.70;44.68;102160.25;4976092;28;20447;-83
2023/02/14 06:34:03;;;;;;;54.95;28.67;;;;;;;7.71;46.07;102177.91;4990878;28;20034;-83
2023/02/14 06:36:29;;;;;;;57.93;30.43;;;;;;;8.66;44.98;102173.91;4972298;28;20518;-82
2023/02/14 06:38:58;;;;;;;54.72;30.65;;;;;;;8.63;44.89;102149.97;4990702;28;20761;-88
2023/02/14 06:41:24;;;;;;;55.83;31.10;;;;;;;7.82;46.26;102150.41;4975553;28;20049;-86
2023/02/14 06:43:57;;;;;;;55.03;31.58;;;;;;;8.08;46.39;102167.31;4955056;28;20117;-87
2023/02/14 06:46:39;;;;;;;53.65;30.63;;;;;;;8.38;45.50;102158.03;4996425;28;20109;-85
2023/02/14 06:49:06;;;;;;;51.25;30.13;;;;;;;8.07;46.53;102164.72;4982778;28;20050;-85
2023/02/14 06:51:32;;;;;;;54.65;29.30;;;;;;;8.92;44.86;102143.44;4974415;28;20120;-85
2023/02/14 06:53:57;;;;;;;54.97;30.73;;;;;;;10.14;42.03;102155.50;4998253;28;20385;-82
2023/02/14 06:56:23;;;;;;;55.95;31.45;;;;;;;10.96;40.28;102143.56;4980116;28;20038;-85
2023/02/14 06:58:48;;;;;;;67.43;34.95;;;;;;;12.07;38.30;102147.66;4975261;28;20054;-83
2023/02/14 07:01:14;;;;;;;59.95;32.45;;;;;;;11.84;37.67;102151.31;4981490;28;20030;-86
2023/02/14 07:03:41;;;;;;;53.13;30.75;;;;;;;11.98;36.86;102149.28;4993345;28;20050;-87
2023/02/14 07:06:07;;;;;;;56.88;31.42;;;;;;;12.91;35.90;102159.00;4974095;28;20106;-87
2023/02/14 07:08:34;;;;;;;63.22;32.50;;;;;;;12.83;35.72;102161.50;4978455;28;20062;-85
2023/02/14 07:11:00;;;;;;;60.22;32.15;;;;;;;13.02;35.69;102155.31;4980487;28;20042;-87
2023/02/14 07:13:26;;;;;;;55.47;32.70;;;;;;;14.31;33.17;102159.41;4968636;28;20053;-87
2023/02/14 07:15:51;;;;;;;57.88;32.58;;;;;;;14.78;32.24;102160.16;4987793;28;20105;-85
2023/02/14 07:18:17;;;;;;;63.70;34.45;;;;;;;15.58;31.02;102165.66;4983490;28;20414;-85
2023/02/14 07:20:46;;;;;;;61.30;35.28;;;;;;;14.71;32.11;102150.97;4976991;28;20034;-84
2023/02/14 07:23:16;;;;;;;59.08;35.47;;;;;;;13.05;34.64;102149.63;4983996;28;20065;-82
2023/02/14 07:25:42;;;;;;;56.63;33.60;;;;;;;12.50;35.80;102151.91;4980357;28;20110;-82
2023/02/14 07:28:10;;;;;;;58.67;32.63;;;;;;;12.73;35.39;102155.25;4983768;28;20038;-84
2023/02/14 07:30:37;;;;;;;53.08;32.15;;;;;;;13.56;34.58;102153.06;5000684;28;20104;-85
2023/02/14 07:33:03;;;;;;;52.40;31.23;;;;;;;13.68;34.37;102139.25;4999768;28;20050;-86
2023/02/14 07:35:29;;;;;;;52.67;31.45;;;;;;;14.49;33.34;102141.38;4999785;28;20130;-83
2023/02/14 07:37:55;;;;;;;46.30;29.55;;;;;;;15.89;31.54;102150.84;4980157;28;20474;-82
2023/02/14 07:40:24;;;;;;;;;;;;;;;16.84;30.01;102151.66;4980128;28;20042;-83
2023/02/14 07:42:53;;;;;;;44.78;30.02;;;;;;;17.22;29.13;102125.72;4997096;28;19936;-84
2023/02/14 07:45:19;;;;;;;49.72;31.85;;;;;;;17.70;28.72;102153.91;4969147;28;20049;-84
2023/02/14 07:47:47;;;;;;;45.08;30.98;;;;;;;18.58;27.37;102157.59;4984152;28;20038;-80
2023/02/14 07:50:12;;;;;;;43.50;29.80;;;;;;;18.72;27.18;102136.91;4963339;28;20399;-84
2023/02/14 07:52:38;;;;;;;;;;;;;;;19.41;26.90;102142.44;4978306;28;20164;-82
2023/02/14 07:55:03;;;;;;;;;;;;;;;19.37;26.48;102141.09;4990003;28;20251;-82
2023/02/14 07:57:29;;;;;;;41.47;28.45;;;;;;;19.14;26.84;102141.94;4970758;28;20020;-84
2023/02/14 07:59:54;;;;;;;46.25;29.50;;;;;;;18.71;26.95;102133.34;4976190;28;20039;-82
2023/02/14 08:02:20;;;;;;;44.58;28.90;;;;;;;19.53;26.06;102113.69;4971593;28;20506;-83
2023/02/14 08:04:45;;;;;;;47.95;29.52;;;;;;;19.83;25.52;102130.16;4954004;28;20415;-82
2023/02/14 08:07:11;;;;;;;41.17;26.27;;;;;;;19.97;24.82;102126.56;4968157;28;20117;-82
2023/02/14 08:09:37;;;;;;;34.00;23.38;;;;;;;20.00;24.74;102131.66;4958395;28;20042;-80
2023/02/14 08:14:50;;;;;;;27.15;18.80;;;;;;;19.12;25.04;102111.28;4936085;28;20089;-80
2023/02/14 08:17:17;;;;;;;26.95;18.15;;;;;;;19.66;24.32;102096.66;4952213;28;20050;-78
2023/02/14 08:19:45;;;;;;;24.50;17.52;;;;;;;20.31;23.21;102105.19;4934184;28;20031;-81
2023/02/14 08:22:11;;;;;;;27.33;17.80;;;;;;;20.83;22.98;102085.00;4953760;28;20043;-84
2023/02/14 08:24:37;;;;;;;27.70;17.70;;;;;;;21.10;22.53;102094.31;4971809;28;20464;-83
2023/02/14 08:27:04;;;;;;;27.27;17.58;;;;;;;21.10;22.25;102104.41;4933367;28;20047;-83
2023/02/14 08:29:30;;;;;;;28.50;18.63;;;;;;;20.64;22.77;102106.44;4972225;28;20035;-82
2023/02/14 08:31:59;;;;;;;27.10;18.75;;;;;;;21.07;22.17;102094.69;4968279;28;20491;-82
2023/02/14 08:34:24;;;;;;;29.05;18.95;;;;;;;20.55;22.29;102101.25;4949794;28;20150;-81
2023/02/14 08:36:50;;;;;;;26.63;18.33;;;;;;;19.79;22.80;102094.19;4946395;28;20122;-80
2023/02/14 08:39:16;;;;;;;23.65;17.92;;;;;;;20.34;22.57;102105.63;4947947;29;20039;-79
2023/02/14 08:41:41;;;;;;;29.55;17.88;;;;;;;19.91;23.15;102078.19;4954365;28;20053;-80
2023/02/14 08:44:07;;;;;;;35.47;19.23;;;;;;;20.20;22.53;102103.75;4937613;28;20472;-84
2023/02/14 08:46:32;;;;;;;24.25;17.60;;;;;;;21.43;21.64;102089.16;4928418;29;20129;-83
2023/02/14 08:48:59;;;;;;;25.63;18.45;;;;;;;21.02;21.67;102084.34;4969009;28;20066;-81
2023/02/14 08:51:25;;;;;;;27.98;18.70;;;;;;;21.80;21.13;102073.44;4968827;28;20125;-82
2023/02/14 08:53:50;;;;;;;26.25;19.23;;;;;;;21.38;21.55;102083.41;4939134;28;20046;-82
2023/02/14 08:56:17;;;;;;;32.30;19.17;;;;;;;21.83;20.86;102080.41;4954900;28;20124;-80
2023/02/14 08:58:43;;;;;;;33.20;18.95;;;;;;;21.67;21.01;102089.75;4922380;28;20038;-79
2023/02/14 09:01:18;;;;;;;27.27;19.02;;;;;;;21.73;21.01;102074.41;4954297;28;20046;-84
2023/02/14 09:03:43;;;;;;;26.63;18.90;;;;;;;21.52;20.58;102059.78;4966429;28;20514;-83
2023/02/14 09:06:15;;;;;;;26.92;19.45;;;;;;;22.54;20.10;102030.78;4953476;28;20058;-82
2023/02/14 09:08:47;;;;;;;26.88;18.77;;;;;;;22.84;19.63;102063.31;4966305;28;20058;-84
2023/02/14 09:11:20;;;;;;;26.15;19.80;;;;;;;22.91;19.41;102067.75;4968208;28;20046;-84
2023/02/14 09:13:47;;;;;;;26.85;19.20;;;;;;;23.90;18.50;102046.81;4945452;28;20042;-83
2023/02/14 09:16:13;;;;;;;30.17;20.05;;;;;;;23.49;18.41;102038.88;4945295;28;20118;-84
2023/02/14 09:18:39;;;;;;;30.70;18.73;;;;;;;24.27;17.62;102049.84;4951043;28;20160;-83
2023/02/14 09:21:08;;;;;;;21.85;17.95;;;;;;;25.10;16.81;102042.56;4949289;28;20034;-79
2023/02/14 09:23:34;;;;;;;25.23;19.52;;;;;;;25.79;16.34;102044.25;4920187;28;20042;-77
2023/02/14 09:26:07;;;;;;;26.48;18.35;;;;;;;25.25;17.26;102040.34;4970380;28;20043;-87
2023/02/14 09:28:32;;;;;;;22.35;16.52;;;;;;;26.18;15.67;102042.13;4917671;28;20426;-83
2023/02/14 09:30:58;;;;;;;27.35;17.05;;;;;;;27.32;14.44;102041.28;4952181;28;20046;-84
2023/02/14 09:36:21;;;;;;;26.15;16.63;;;;;;;27.79;13.97;102019.13;4960884;28;20077;-81
2023/02/14 09:38:46;;;;;;;23.63;16.65;;;;;;;28.58;13.48;102021.31;4977424;28;20097;-83
2023/02/14 09:41:52;;;;;;;21.15;15.38;;;;;;;29.50;12.54;102022.84;4957538;28;20043;-85
2023/02/14 09:44:33;;;;;;;25.35;17.13;;;;;;;29.83;12.19;102030.25;4943475;28;20073;-83
2023/02/14 09:47:35;;;;;;;26.58;18.90;;;;;;;27.31;14.26;102015.59;4950052;28;20057;-88
2023/02/14 09:50:03;;;;;;;22.20;16.80;;;;;;;25.86;14.95;102019.38;4934933;28;20456;-80
2023/02/14 09:52:30;;;;;;;21.95;16.10;;;;;;;26.33;14.92;102028.75;4929039;28;20034;-77
2023/02/14 09:55:00;;;;;;;22.55;15.25;;;;;;;27.23;14.18;102026.16;4970093;28;20062;-82
2023/02/14 09:57:28;;;;;;;24.20;15.75;;;;;;;28.63;13.71;102018.63;4935624;28;20031;-84
2023/02/14 10:00:48;;;;;;;20.73;16.80;;;;;;;28.04;13.52;102016.09;4983090;28;20051;-87
2023/02/14 10:03:35;;;;;;;23.85;15.95;;;;;;;28.06;13.80;102013.09;4929686;29;20142;-84
2023/02/14 10:06:04;;;;;;;21.48;16.17;;;;;;;28.02;14.06;102028.50;4971983;28;20034;-84
2023/02/14 10:08:54;;;;;;;21.63;15.95;;;;;;;26.48;14.97;101991.66;4954037;28;20057;-82
2023/02/14 10:11:23;;;;;;;19.42;14.43;;;;;;;26.62;14.46;101993.19;4938463;28;20039;-82
2023/02/14 10:14:22;;;;;;;17.88;14.00;;;;;;;27.25;14.03;101996.38;4937904;28;20501;-81
2023/02/14 10:17:08;;;;;;;18.63;14.82;;;;;;;26.37;14.69;101998.81;4947441;28;20504;-84
2023/02/14 10:19:54;;;;;;;19.63;14.73;;;;;;;26.55;14.54;101975.03;4951232;28;20026;-82
2023/02/14 10:22:25;;;;;;;22.70;14.93;;;;;;;24.68;15.95;101981.75;4950030;28;20050;-84
2023/02/14 10:24:57;;;;;;;18.65;14.48;;;;;;;25.99;14.57;101957.78;4926970;28;20035;-83
2023/02/14 10:27:41;;;;;;;17.95;13.50;;;;;;;28.40;13.13;101984.47;4953731;28;20385;-83
2023/02/14 10:30:13;;;;;;;23.70;14.95;;;;;;;29.24;12.72;101980.94;4967515;28;20039;-85
2023/02/14 10:32:38;;;;;;;22.77;15.50;;;;;;;28.70;13.16;101980.56;4949359;28;20058;-79
2023/02/14 10:35:37;;;;;;;17.88;13.73;;;;;;;29.29;12.32;101974.63;4971469;28;20062;-86
2023/02/14 10:38:34;;;;;;;23.63;15.70;;;;;;;29.38;12.28;101959.22;4969313;28;20030;-84
2023/02/14 10:41:27;;;;;;;20.02;12.90;;;;;;;28.69;12.61;101973.38;4954164;28;20053;-85
2023/02/14 10:44:29;;;;;;;17.88;13.13;;;;;;;27.66;13.07;101966.94;4945404;28;20042;-84
2023/02/14 10:47:09;;;;;;;16.63;12.25;;;;;;;27.16;13.61;101971.88;4971462;28;20554;-87
2023/02/14 10:49:46;;;;;;;16.80;12.43;;;;;;;26.74;14.28;101951.81;4964663;28;20461;-85
2023/02/14 10:52:28;;;;;;;17.70;13.65;;;;;;;28.37;12.77;101954.53;4946710;28;20030;-88
2023/02/14 10:54:58;;;;;;;17.90;12.65;;;;;;;27.15;13.62;101970.19;4947389;28;20078;-85
2023/02/14 10:57:29;;;;;;;14.25;11.77;;;;;;;28.46;12.79;101948.59;4936554;28;20037;-87
2023/02/14 11:00:26;;;;;;;17.38;12.25;;;;;;;28.62;12.91;101967.16;4963802;28;20078;-87
2023/02/14 11:02:59;;;;;;;14.52;12.05;;;;;;;27.82;13.01;101957.88;4961151;28;20559;-87
2023/02/14 11:05:41;;;;;;;22.48;13.15;;;;;;;27.12;13.98;101959.63;4933944;28;20168;-88
2023/02/14 11:08:22;;;;;;;16.55;11.70;;;;;;;27.35;13.48;101941.41;4922889;29;20059;-85
2023/02/14 11:10:48;;;;;;;14.65;10.40;;;;;;;26.09;14.25;101931.38;4955094;28;20070;-86
2023/02/14 11:13:38;;;;;;;13.82;10.13;;;;;;;26.04;14.19;101935.91;4950477;29;20445;-89
2023/02/14 11:16:08;;;;;;;15.93;10.40;;;;;;;25.10;14.75;101927.88;4941405;28;20108;-87
2023/02/14 11:18:38;;;;;;;20.77;10.63;;;;;;;24.27;15.25;101915.19;4929442;28;20054;-87
2023/02/14 11:21:12;;;;;;;13.88;10.27;;;;;;;23.46;16.09;101908.41;4940365;29;20039;-87
2023/02/14 11:23:48;;;;;;;18.20;10.65;;;;;;;22.87;16.89;101937.59;4935597;28;20110;-85
2023/02/14 11:26:25;;;;;;;11.00;8.98;;;;;;;22.48;17.20;101931.06;4955442;28;20031;-86
2023/02/14 11:28:59;;;;;;;13.98;9.50;;;;;;;22.17;17.33;101917.91;4958327;28;20439;-85
2023/02/14 11:31:31;;;;;;;15.98;10.48;;;;;;;23.16;16.93;101930.03;4963923;28;20101;-87
2023/02/14 11:33:59;;;;;;;16.20;10.88;;;;;;;23.04;17.24;101923.47;4967518;28;20114;-88
2023/02/14 11:36:27;;;;;;;16.00;9.95;;;;;;;24.13;16.29;101903.44;4972866;28;20050;-90
2023/02/14 11:39:20;;;;;;;13.70;10.57;;;;;;;21.85;18.00;101889.41;4946687;28;20039;-89
2023/02/14 11:41:55;;;;;;;13.25;9.18;;;;;;;22.04;17.83;101885.88;4989589;28;20086;-89
2023/02/14 11:44:27;;;;;;;12.93;8.68;;;;;;;21.48;18.31;101894.31;4953685;28;20074;-89
2023/02/14 11:46:55;;;;;;;10.85;7.93;;;;;;;22.09;17.62;101915.38;4975857;28;20134;-86
2023/02/14 11:49:30;;;;;;;12.75;8.20;;;;;;;22.34;17.65;101919.25;4992464;28;20146;-90